sensor_id;sensor_type;location;lat;lon;timestamp;pressure;altitude;pressure_sealevel;temperature;humidity
53916;BME280;39827;49.652;18.770;2024-01-30T00:00:34;76269.25;;;-149.71;57.33
53916;BME280;39827;49.652;18.770;2024-01-30T00:02:59;76271.25;;;-149.71;57.32
53916;BME280;39827;49.652;18.770;2024-01-30T00:05:24;76271.25;;;-149.71;57.50
53916;BME280;39827;49.652;18.770;2024-01-30T00:07:50;76277.28;;;-149.71;57.77
53916;BME280;39827;49.652;18.770;2024-01-30T00:10:15;76277.28;;;-149.71;58.02
53916;BME280;39827;49.652;18.770;2024-01-30T00:12:41;76291.34;;;-149.71;58.45
53916;BME280;39827;49.652;18.770;2024-01-30T00:15:06;76305.44;;;-149.71;58.92
53916;BME280;39827;49.652;18.770;2024-01-30T00:17:35;76307.44;;;-149.71;59.22
53916;BME280;39827;49.652;18.770;2024-01-30T00:20:01;76297.38;;;-149.71;59.28
53916;BME280;39827;49.652;18.770;2024-01-30T00:22:26;76305.44;;;-149.71;58.86
53916;BME280;39827;49.652;18.770;2024-01-30T00:24:52;76305.44;;;-149.71;58.96
53916;BME280;39827;49.652;18.770;2024-01-30T00:27:17;76311.44;;;-149.71;58.66
53916;BME280;39827;49.652;18.770;2024-01-30T00:29:42;76315.47;;;-149.71;58.57
53916;BME280;39827;49.652;18.770;2024-01-30T00:32:08;76293.38;;;-149.71;57.98
53916;BME280;39827;49.652;18.770;2024-01-30T00:34:33;76287.34;;;-149.71;57.59
53916;BME280;39827;49.652;18.770;2024-01-30T00:36:58;76287.34;;;-149.71;57.06
53916;BME280;39827;49.652;18.770;2024-01-30T00:39:24;76303.41;;;-149.71;57.47
53916;BME280;39827;49.652;18.770;2024-01-30T00:41:49;76291.34;;;-149.71;57.16
53916;BME280;39827;49.652;18.770;2024-01-30T00:44:15;76297.38;;;-149.71;57.52
53916;BME280;39827;49.652;18.770;2024-01-30T00:46:40;76299.38;;;-149.71;57.01
53916;BME280;39827;49.652;18.770;2024-01-30T00:49:05;76291.34;;;-149.71;57.18
53916;BME280;39827;49.652;18.770;2024-01-30T00:51:31;76293.38;;;-149.71;56.45
53916;BME280;39827;49.652;18.770;2024-01-30T00:53:56;76293.38;;;-149.71;56.21
53916;BME280;39827;49.652;18.770;2024-01-30T00:56:21;76285.31;;;-149.71;56.22
53916;BME280;39827;49.652;18.770;2024-01-30T00:58:47;76277.28;;;-149.71;56.36
53916;BME280;39827;49.652;18.770;2024-01-30T01:01:12;76275.28;;;-149.71;56.22
53916;BME280;39827;49.652;18.770;2024-01-30T01:03:38;76287.34;;;-149.71;56.95
53916;BME280;39827;49.652;18.770;2024-01-30T01:06:06;76281.31;;;-149.71;57.24
53916;BME280;39827;49.652;18.770;2024-01-30T01:08:31;76315.47;;;-149.71;57.61
53916;BME280;39827;49.652;18.770;2024-01-30T01:10:56;76311.44;;;-149.71;57.71
53916;BME280;39827;49.652;18.770;2024-01-30T01:13:22;76309.44;;;-149.71;57.52
53916;BME280;39827;49.652;18.770;2024-01-30T01:15:47;76293.38;;;-149.71;56.83
53916;BME280;39827;49.652;18.770;2024-01-30T01:18:12;76297.38;;;-149.71;56.90
53916;BME280;39827;49.652;18.770;2024-01-30T01:20:38;76291.34;;;-149.71;57.38
53916;BME280;39827;49.652;18.770;2024-01-30T01:23:03;76291.34;;;-149.71;56.86
53916;BME280;39827;49.652;18.770;2024-01-30T01:25:28;76277.28;;;-149.71;56.98
53916;BME280;39827;49.652;18.770;2024-01-30T01:27:54;76299.38;;;-149.71;57.38
53916;BME280;39827;49.652;18.770;2024-01-30T01:30:19;76315.47;;;-149.71;57.57
53916;BME280;39827;49.652;18.770;2024-01-30T01:32:49;76293.38;;;-149.71;57.36
53916;BME280;39827;49.652;18.770;2024-01-30T01:35:25;76291.34;;;-149.71;57.20
53916;BME280;39827;49.652;18.770;2024-01-30T01:37:53;76281.31;;;-149.71;56.98
53916;BME280;39827;49.652;18.770;2024-01-30T01:40:24;76295.38;;;-149.71;57.34
53916;BME280;39827;49.652;18.770;2024-01-30T01:42:51;76281.31;;;-149.71;57.27
53916;BME280;39827;49.652;18.770;2024-01-30T01:45:20;76285.31;;;-149.71;57.22
53916;BME280;39827;49.652;18.770;2024-01-30T01:47:48;76283.31;;;-149.71;57.59
53916;BME280;39827;49.652;18.770;2024-01-30T01:50:16;76303.41;;;-149.71;58.14
53916;BME280;39827;49.652;18.770;2024-01-30T01:52:47;76311.44;;;-149.71;58.37
53916;BME280;39827;49.652;18.770;2024-01-30T01:55:13;76297.38;;;-149.71;57.97
53916;BME280;39827;49.652;18.770;2024-01-30T01:57:40;76297.38;;;-149.71;58.27
53916;BME280;39827;49.652;18.770;2024-01-30T02:00:06;76307.44;;;-149.71;58.74
53916;BME280;39827;49.652;18.770;2024-01-30T02:02:35;76309.44;;;-149.71;59.35
53916;BME280;39827;49.652;18.770;2024-01-30T02:05:00;76305.44;;;-149.71;59.02
53916;BME280;39827;49.652;18.770;2024-01-30T02:07:27;76287.34;;;-149.71;58.27
53916;BME280;39827;49.652;18.770;2024-01-30T02:09:53;76297.38;;;-149.71;58.14
53916;BME280;39827;49.652;18.770;2024-01-30T02:12:18;76277.28;;;-149.71;58.10
53916;BME280;39827;49.652;18.770;2024-01-30T02:14:48;76271.25;;;-149.71;57.77
53916;BME280;39827;49.652;18.770;2024-01-30T02:17:15;76273.25;;;-149.71;57.74
53916;BME280;39827;49.652;18.770;2024-01-30T02:19:40;76277.28;;;-149.71;57.85
53916;BME280;39827;49.652;18.770;2024-01-30T02:22:07;76281.31;;;-149.71;57.50
53916;BME280;39827;49.652;18.770;2024-01-30T02:24:32;76273.25;;;-149.71;57.28
53916;BME280;39827;49.652;18.770;2024-01-30T02:26:58;76277.28;;;-149.71;57.43
53916;BME280;39827;49.652;18.770;2024-01-30T02:29:23;76275.28;;;-149.71;57.35
53916;BME280;39827;49.652;18.770;2024-01-30T02:31:48;76277.28;;;-149.71;57.41
53916;BME280;39827;49.652;18.770;2024-01-30T02:34:14;76285.31;;;-149.71;57.57
53916;BME280;39827;49.652;18.770;2024-01-30T02:36:43;76295.38;;;-149.71;57.57
53916;BME280;39827;49.652;18.770;2024-01-30T02:39:09;76293.38;;;-149.71;57.19
53916;BME280;39827;49.652;18.770;2024-01-30T02:41:35;76281.31;;;-149.71;57.56
53916;BME280;39827;49.652;18.770;2024-01-30T02:44:00;76277.28;;;-149.71;57.75
53916;BME280;39827;49.652;18.770;2024-01-30T02:46:25;76275.28;;;-149.71;57.54
53916;BME280;39827;49.652;18.770;2024-01-30T02:48:51;76289.34;;;-149.71;58.08
53916;BME280;39827;49.652;18.770;2024-01-30T02:51:16;76273.25;;;-149.71;57.95
53916;BME280;39827;49.652;18.770;2024-01-30T02:53:42;76309.44;;;-149.71;58.00
53916;BME280;39827;49.652;18.770;2024-01-30T02:56:07;76277.28;;;-149.71;57.55
53916;BME280;39827;49.652;18.770;2024-01-30T02:58:37;76293.38;;;-149.71;57.85
53916;BME280;39827;49.652;18.770;2024-01-30T03:01:03;76289.34;;;-149.71;57.86
53916;BME280;39827;49.652;18.770;2024-01-30T03:03:28;76295.38;;;-149.71;58.31
53916;BME280;39827;49.652;18.770;2024-01-30T03:05:53;76289.34;;;-149.71;58.12
53916;BME280;39827;49.652;18.770;2024-01-30T03:08:19;76301.41;;;-149.71;58.59
53916;BME280;39827;49.652;18.770;2024-01-30T03:10:45;76289.34;;;-149.71;58.14
53916;BME280;39827;49.652;18.770;2024-01-30T03:13:10;76293.38;;;-149.71;58.29
53916;BME280;39827;49.652;18.770;2024-01-30T03:15:36;76303.41;;;-149.71;58.51
53916;BME280;39827;49.652;18.770;2024-01-30T03:18:02;76299.38;;;-149.71;58.23
53916;BME280;39827;49.652;18.770;2024-01-30T03:20:29;76293.38;;;-149.71;57.95
53916;BME280;39827;49.652;18.770;2024-01-30T03:22:55;76293.38;;;-149.71;58.27
53916;BME280;39827;49.652;18.770;2024-01-30T03:25:20;76313.47;;;-149.71;58.52
53916;BME280;39827;49.652;18.770;2024-01-30T03:27:46;76311.44;;;-149.71;58.29
53916;BME280;39827;49.652;18.770;2024-01-30T03:30:11;76325.53;;;-149.71;58.97
53916;BME280;39827;49.652;18.770;2024-01-30T03:32:37;76315.47;;;-149.71;58.52
53916;BME280;39827;49.652;18.770;2024-01-30T03:35:02;76313.47;;;-149.71;58.45
53916;BME280;39827;49.652;18.770;2024-01-30T03:37:28;76315.47;;;-149.71;58.42
53916;BME280;39827;49.652;18.770;2024-01-30T03:39:53;76325.53;;;-149.71;58.71
53916;BME280;39827;49.652;18.770;2024-01-30T03:42:18;76311.44;;;-149.71;58.17
53916;BME280;39827;49.652;18.770;2024-01-30T03:44:44;76317.47;;;-149.71;58.27
53916;BME280;39827;49.652;18.770;2024-01-30T03:47:09;76311.44;;;-149.71;58.37
53916;BME280;39827;49.652;18.770;2024-01-30T03:49:35;76319.50;;;-149.71;58.50
53916;BME280;39827;49.652;18.770;2024-01-30T03:52:00;76305.44;;;-149.71;58.09
53916;BME280;39827;49.652;18.770;2024-01-30T03:54:25;76307.44;;;-149.71;58.25
53916;BME280;39827;49.652;18.770;2024-01-30T03:56:51;76297.38;;;-149.71;58.13
53916;BME280;39827;49.652;18.770;2024-01-30T03:59:16;76299.38;;;-149.71;58.27
53916;BME280;39827;49.652;18.770;2024-01-30T04:01:47;76309.44;;;-149.71;58.14
53916;BME280;39827;49.652;18.770;2024-01-30T04:04:12;76305.44;;;-149.71;58.52
53916;BME280;39827;49.652;18.770;2024-01-30T04:06:38;76309.44;;;-149.71;58.24
53916;BME280;39827;49.652;18.770;2024-01-30T04:09:03;76319.50;;;-149.71;58.44
53916;BME280;39827;49.652;18.770;2024-01-30T04:11:29;76317.47;;;-149.71;58.63
53916;BME280;39827;49.652;18.770;2024-01-30T04:13:54;76323.50;;;-149.71;58.46
53916;BME280;39827;49.652;18.770;2024-01-30T04:16:20;76315.47;;;-149.71;58.04
53916;BME280;39827;49.652;18.770;2024-01-30T04:18:47;76295.38;;;-149.71;58.29
53916;BME280;39827;49.652;18.770;2024-01-30T04:21:12;76315.47;;;-149.71;58.73
53916;BME280;39827;49.652;18.770;2024-01-30T04:23:37;76307.44;;;-149.71;58.39
53916;BME280;39827;49.652;18.770;2024-01-30T04:26:03;76311.44;;;-149.71;58.07
53916;BME280;39827;49.652;18.770;2024-01-30T04:28:28;76315.47;;;-149.71;58.11
53916;BME280;39827;49.652;18.770;2024-01-30T04:30:55;76319.50;;;-149.71;58.02
53916;BME280;39827;49.652;18.770;2024-01-30T04:33:20;76321.50;;;-149.71;57.74
53916;BME280;39827;49.652;18.770;2024-01-30T04:35:46;76305.44;;;-149.71;57.91
53916;BME280;39827;49.652;18.770;2024-01-30T04:38:11;76317.47;;;-149.71;58.14
53916;BME280;39827;49.652;18.770;2024-01-30T04:40:36;76317.47;;;-149.71;58.66
53916;BME280;39827;49.652;18.770;2024-01-30T04:43:02;76319.50;;;-149.71;58.70
53916;BME280;39827;49.652;18.770;2024-01-30T04:45:27;76327.53;;;-149.71;58.50
53916;BME280;39827;49.652;18.770;2024-01-30T04:47:52;76315.47;;;-149.71;58.32
53916;BME280;39827;49.652;18.770;2024-01-30T04:50:18;76337.59;;;-149.71;58.52
53916;BME280;39827;49.652;18.770;2024-01-30T04:52:44;76349.66;;;-149.71;58.83
53916;BME280;39827;49.652;18.770;2024-01-30T04:55:09;76337.59;;;-149.71;58.59
53916;BME280;39827;49.652;18.770;2024-01-30T04:57:34;76331.56;;;-149.71;58.79
53916;BME280;39827;49.652;18.770;2024-01-30T05:00:00;76341.59;;;-149.71;59.00
53916;BME280;39827;49.652;18.770;2024-01-30T05:02:26;76331.56;;;-149.71;59.19
53916;BME280;39827;49.652;18.770;2024-01-30T05:04:52;76335.56;;;-149.71;58.74
53916;BME280;39827;49.652;18.770;2024-01-30T05:07:17;76337.59;;;-149.71;58.87
53916;BME280;39827;49.652;18.770;2024-01-30T05:09:43;76327.53;;;-149.71;58.29
53916;BME280;39827;49.652;18.770;2024-01-30T05:12:08;76325.53;;;-149.71;58.21
53916;BME280;39827;49.652;18.770;2024-01-30T05:14:34;76335.56;;;-149.71;58.18
53916;BME280;39827;49.652;18.770;2024-01-30T05:16:59;76345.63;;;-149.71;58.25
53916;BME280;39827;49.652;18.770;2024-01-30T05:19:25;76331.56;;;-149.71;57.92
53916;BME280;39827;49.652;18.770;2024-01-30T05:21:50;76331.56;;;-149.71;58.16
53916;BME280;39827;49.652;18.770;2024-01-30T05:24:16;76359.69;;;-149.71;58.10
53916;BME280;39827;49.652;18.770;2024-01-30T05:26:41;76341.59;;;-149.71;57.88
53916;BME280;39827;49.652;18.770;2024-01-30T05:29:06;76337.59;;;-149.71;57.57
53916;BME280;39827;49.652;18.770;2024-01-30T05:31:33;76339.59;;;-149.71;57.64
53916;BME280;39827;49.652;18.770;2024-01-30T05:33:59;76341.59;;;-149.71;57.34
53916;BME280;39827;49.652;18.770;2024-01-30T05:36:25;76327.53;;;-149.71;57.44
53916;BME280;39827;49.652;18.770;2024-01-30T05:38:50;76341.59;;;-149.71;57.50
53916;BME280;39827;49.652;18.770;2024-01-30T05:41:16;76345.63;;;-149.71;57.97
53916;BME280;39827;49.652;18.770;2024-01-30T05:43:41;76351.66;;;-149.71;57.61
53916;BME280;39827;49.652;18.770;2024-01-30T05:46:06;76345.63;;;-149.71;57.82
53916;BME280;39827;49.652;18.770;2024-01-30T05:48:32;76341.59;;;-149.71;58.07
53916;BME280;39827;49.652;18.770;2024-01-30T05:50:58;76349.66;;;-149.71;58.12
53916;BME280;39827;49.652;18.770;2024-01-30T05:53:25;76335.56;;;-149.71;57.13
53916;BME280;39827;49.652;18.770;2024-01-30T05:55:50;76339.59;;;-149.71;57.38
53916;BME280;39827;49.652;18.770;2024-01-30T05:58:15;76329.53;;;-149.71;57.11
53916;BME280;39827;49.652;18.770;2024-01-30T06:00:41;76345.63;;;-149.71;57.60
53916;BME280;39827;49.652;18.770;2024-01-30T06:03:07;76335.56;;;-149.71;57.07
53916;BME280;39827;49.652;18.770;2024-01-30T06:05:32;76331.56;;;-149.71;56.67
53916;BME280;39827;49.652;18.770;2024-01-30T06:07:58;76347.63;;;-149.71;56.97
53916;BME280;39827;49.652;18.770;2024-01-30T06:10:23;76327.53;;;-149.71;57.04
53916;BME280;39827;49.652;18.770;2024-01-30T06:12:49;76357.69;;;-149.71;57.22
53916;BME280;39827;49.652;18.770;2024-01-30T06:15:14;76361.72;;;-149.71;57.31
53916;BME280;39827;49.652;18.770;2024-01-30T06:17:39;76357.69;;;-149.71;57.72
53916;BME280;39827;49.652;18.770;2024-01-30T06:20:06;76353.66;;;-149.71;57.69
53916;BME280;39827;49.652;18.770;2024-01-30T06:22:31;76355.69;;;-149.71;57.60
53916;BME280;39827;49.652;18.770;2024-01-30T06:24:56;76363.72;;;-149.71;58.14
53916;BME280;39827;49.652;18.770;2024-01-30T06:27:22;76351.66;;;-149.71;58.04
53916;BME280;39827;49.652;18.770;2024-01-30T06:29:47;76361.72;;;-149.71;57.88
53916;BME280;39827;49.652;18.770;2024-01-30T06:32:13;76369.75;;;-149.71;58.24
53916;BME280;39827;49.652;18.770;2024-01-30T06:34:38;76349.66;;;-149.71;57.72
53916;BME280;39827;49.652;18.770;2024-01-30T06:37:05;76359.69;;;-149.71;58.34
53916;BME280;39827;49.652;18.770;2024-01-30T06:39:30;76353.66;;;-149.71;57.84
53916;BME280;39827;49.652;18.770;2024-01-30T06:41:56;76377.78;;;-149.71;58.28
53916;BME280;39827;49.652;18.770;2024-01-30T06:44:21;76387.84;;;-149.71;58.41
53916;BME280;39827;49.652;18.770;2024-01-30T06:46:47;76383.81;;;-149.71;58.92
53916;BME280;39827;49.652;18.770;2024-01-30T06:49:12;76365.72;;;-149.71;58.75
53916;BME280;39827;49.652;18.770;2024-01-30T06:51:37;76365.72;;;-149.71;58.02
53916;BME280;39827;49.652;18.770;2024-01-30T06:54:03;76345.63;;;-149.71;57.56
53916;BME280;39827;49.652;18.770;2024-01-30T06:56:29;76357.69;;;-149.71;57.32
53916;BME280;39827;49.652;18.770;2024-01-30T06:58:55;76341.59;;;-149.71;57.18
53916;BME280;39827;49.652;18.770;2024-01-30T07:01:20;76351.66;;;-149.71;57.09
53916;BME280;39827;49.652;18.770;2024-01-30T07:03:46;76347.63;;;-149.71;57.06
53916;BME280;39827;49.652;18.770;2024-01-30T07:06:11;76345.63;;;-149.71;57.08
53916;BME280;39827;49.652;18.770;2024-01-30T07:08:37;76321.50;;;-149.71;56.52
53916;BME280;39827;49.652;18.770;2024-01-30T07:11:06;76345.63;;;-149.71;56.74
53916;BME280;39827;49.652;18.770;2024-01-30T07:13:32;76337.59;;;-149.71;56.79
53916;BME280;39827;49.652;18.770;2024-01-30T07:15:57;76333.56;;;-149.71;55.83
53916;BME280;39827;49.652;18.770;2024-01-30T07:18:23;76323.50;;;-149.71;56.22
53916;BME280;39827;49.652;18.770;2024-01-30T07:20:49;76347.63;;;-149.71;56.51
53916;BME280;39827;49.652;18.770;2024-01-30T07:23:15;76333.56;;;-149.71;57.19
53916;BME280;39827;49.652;18.770;2024-01-30T07:25:45;76337.59;;;-149.71;57.13
53916;BME280;39827;49.652;18.770;2024-01-30T07:28:13;76327.53;;;-149.71;56.88
53916;BME280;39827;49.652;18.770;2024-01-30T07:30:42;76327.53;;;-149.71;57.71
53916;BME280;39827;49.652;18.770;2024-01-30T07:33:07;76319.50;;;-149.71;57.17
53916;BME280;39827;49.652;18.770;2024-01-30T07:35:33;76315.47;;;-149.71;57.31
53916;BME280;39827;49.652;18.770;2024-01-30T07:37:59;76321.50;;;-149.71;57.13
53916;BME280;39827;49.652;18.770;2024-01-30T07:40:24;76309.44;;;-149.71;57.02
53916;BME280;39827;49.652;18.770;2024-01-30T07:42:49;76301.41;;;-149.71;56.63
53916;BME280;39827;49.652;18.770;2024-01-30T07:45:15;76299.38;;;-149.71;56.85
53916;BME280;39827;49.652;18.770;2024-01-30T07:47:40;76291.34;;;-149.71;55.83
53916;BME280;39827;49.652;18.770;2024-01-30T07:50:07;76313.47;;;-149.71;55.91
53916;BME280;39827;49.652;18.770;2024-01-30T07:52:33;76273.25;;;-149.71;55.17
53916;BME280;39827;49.652;18.770;2024-01-30T07:54:59;76042.09;;;-149.71;50.67
53916;BME280;39827;49.652;18.770;2024-01-30T07:57:24;75927.53;;;-149.71;48.21
53916;BME280;39827;49.652;18.770;2024-01-30T07:59:50;75835.06;;;-149.71;46.18
53916;BME280;39827;49.652;18.770;2024-01-30T08:02:15;75670.25;;;-149.71;42.96
53916;BME280;39827;49.652;18.770;2024-01-30T08:04:41;75626.03;;;-149.71;41.79
53916;BME280;39827;49.652;18.770;2024-01-30T08:07:06;75553.69;;;-149.71;40.50
53916;BME280;39827;49.652;18.770;2024-01-30T08:09:32;75545.66;;;-149.71;39.37
53916;BME280;39827;49.652;18.770;2024-01-30T08:11:57;75521.53;;;-149.71;38.50
53916;BME280;39827;49.652;18.770;2024-01-30T08:14:22;75517.50;;;-149.71;38.84
53916;BME280;39827;49.652;18.770;2024-01-30T08:16:48;75489.38;;;-149.71;38.29
53916;BME280;39827;49.652;18.770;2024-01-30T08:19:14;75501.44;;;-149.71;37.86
53916;BME280;39827;49.652;18.770;2024-01-30T08:21:40;75413.00;;;-149.71;36.83
53916;BME280;39827;49.652;18.770;2024-01-30T08:24:06;75475.31;;;-149.71;37.12
53916;BME280;39827;49.652;18.770;2024-01-30T08:26:32;75390.91;;;-149.71;36.82
53916;BME280;39827;49.652;18.770;2024-01-30T08:28:58;75338.66;;;-149.71;36.20
53916;BME280;39827;49.652;18.770;2024-01-30T08:31:23;75417.03;;;-149.71;35.88
53916;BME280;39827;49.652;18.770;2024-01-30T08:33:49;75354.72;;;-149.71;36.03
53916;BME280;39827;49.652;18.770;2024-01-30T08:36:15;75411.00;;;-149.71;36.00
53916;BME280;39827;49.652;18.770;2024-01-30T08:38:41;75342.66;;;-149.71;35.46
53916;BME280;39827;49.652;18.770;2024-01-30T08:41:07;75282.38;;;-149.71;34.83
53916;BME280;39827;49.652;18.770;2024-01-30T08:43:32;75302.47;;;-149.71;35.29
53916;BME280;39827;49.652;18.770;2024-01-30T08:46:01;75338.66;;;-149.71;35.67
53916;BME280;39827;49.652;18.770;2024-01-30T08:48:26;75234.16;;;-149.71;34.43
53916;BME280;39827;49.652;18.770;2024-01-30T08:50:54;75296.44;;;-149.71;34.71
53916;BME280;39827;49.652;18.770;2024-01-30T08:53:19;75163.81;;;-149.71;33.38
53916;BME280;39827;49.652;18.770;2024-01-30T08:55:45;75143.72;;;-149.71;32.96
53916;BME280;39827;49.652;18.770;2024-01-30T08:58:10;75077.41;;;-149.71;32.32
53916;BME280;39827;49.652;18.770;2024-01-30T09:00:36;75049.28;;;-149.71;32.31
53916;BME280;39827;49.652;18.770;2024-01-30T09:03:01;74968.88;;;-149.71;31.24
53916;BME280;39827;49.652;18.770;2024-01-30T09:05:27;75037.22;;;-149.71;31.35
53916;BME280;39827;49.652;18.770;2024-01-30T09:07:52;75097.50;;;-149.71;32.47
53916;BME280;39827;49.652;18.770;2024-01-30T09:10:18;75027.16;;;-149.71;31.68
53916;BME280;39827;49.652;18.770;2024-01-30T09:12:43;75035.19;;;-149.71;31.63
53916;BME280;39827;49.652;18.770;2024-01-30T09:15:09;75091.47;;;-149.71;32.12
53916;BME280;39827;49.652;18.770;2024-01-30T09:17:34;74946.78;;;-149.71;31.25
53916;BME280;39827;49.652;18.770;2024-01-30T09:19:59;75013.09;;;-149.71;31.37
53916;BME280;39827;49.652;18.770;2024-01-30T09:22:26;74972.91;;;-149.71;30.48
53916;BME280;39827;49.652;18.770;2024-01-30T09:24:51;74936.72;;;-149.71;30.63
53916;BME280;39827;49.652;18.770;2024-01-30T09:27:16;74942.75;;;-149.71;30.29
53916;BME280;39827;49.652;18.770;2024-01-30T09:29:42;74993.00;;;-149.71;30.93
53916;BME280;39827;49.652;18.770;2024-01-30T09:32:07;74950.81;;;-149.71;30.71
53916;BME280;39827;49.652;18.770;2024-01-30T09:34:34;74771.97;;;-149.71;29.57
53916;BME280;39827;49.652;18.770;2024-01-30T09:36:59;74790.03;;;-149.71;29.47
53916;BME280;39827;49.652;18.770;2024-01-30T09:39:26;74844.31;;;-149.71;29.78
53916;BME280;39827;49.652;18.770;2024-01-30T09:44:50;74838.28;;;-149.71;29.27
53916;BME280;39827;49.652;18.770;2024-01-30T09:47:17;74737.81;;;-149.71;29.05
53916;BME280;39827;49.652;18.770;2024-01-30T09:49:43;74926.69;;;-149.71;30.22
53916;BME280;39827;49.652;18.770;2024-01-30T09:52:09;74878.47;;;-149.71;30.19
53916;BME280;39827;49.652;18.770;2024-01-30T09:54:36;74804.13;;;-149.71;29.45
53916;BME280;39827;49.652;18.770;2024-01-30T09:57:01;74743.84;;;-149.71;29.21
53916;BME280;39827;49.652;18.770;2024-01-30T09:59:27;74778.00;;;-149.71;29.47
53916;BME280;39827;49.652;18.770;2024-01-30T10:01:52;74870.41;;;-149.71;29.64
53916;BME280;39827;49.652;18.770;2024-01-30T10:04:18;74890.53;;;-149.71;29.85
53916;BME280;39827;49.652;18.770;2024-01-30T10:06:43;74757.91;;;-149.71;29.47
53916;BME280;39827;49.652;18.770;2024-01-30T10:09:09;74613.22;;;-149.71;27.79
53916;BME280;39827;49.652;18.770;2024-01-30T10:11:38;74729.75;;;-149.71;28.52
53916;BME280;39827;49.652;18.770;2024-01-30T10:14:03;74778.00;;;-149.71;29.30
53916;BME280;39827;49.652;18.770;2024-01-30T10:16:29;74725.75;;;-149.71;28.79
53916;BME280;39827;49.652;18.770;2024-01-30T10:18:54;74575.03;;;-149.71;27.74
53916;BME280;39827;49.652;18.770;2024-01-30T10:21:20;74629.28;;;-149.71;28.18
53916;BME280;39827;49.652;18.770;2024-01-30T10:23:46;74544.91;;;-149.71;27.88
53916;BME280;39827;49.652;18.770;2024-01-30T10:26:11;74548.94;;;-149.71;27.45
53916;BME280;39827;49.652;18.770;2024-01-30T10:28:37;74613.22;;;-149.71;27.98
53916;BME280;39827;49.652;18.770;2024-01-30T10:31:02;74565.00;;;-149.71;27.77
53916;BME280;39827;49.652;18.770;2024-01-30T10:33:31;74659.44;;;-149.71;27.33
53916;BME280;39827;49.652;18.770;2024-01-30T10:36:01;74635.31;;;-149.71;28.28
53916;BME280;39827;49.652;18.770;2024-01-30T10:38:32;74796.06;;;-149.71;28.95
53916;BME280;39827;49.652;18.770;2024-01-30T10:40:58;74581.06;;;-149.71;27.92
53916;BME280;39827;49.652;18.770;2024-01-30T10:43:40;74675.50;;;-149.71;28.44
53916;BME280;39827;49.652;18.770;2024-01-30T10:46:18;74697.63;;;-149.71;28.56
53916;BME280;39827;49.652;18.770;2024-01-30T10:48:58;74637.34;;;-149.71;28.08
53916;BME280;39827;49.652;18.770;2024-01-30T10:51:26;74725.75;;;-149.71;28.23
53916;BME280;39827;49.652;18.770;2024-01-30T10:53:52;74769.94;;;-149.71;29.14
53916;BME280;39827;49.652;18.770;2024-01-30T10:56:21;74834.25;;;-149.71;29.36
53916;BME280;39827;49.652;18.770;2024-01-30T10:58:50;74773.97;;;-149.71;28.99
53916;BME280;39827;49.652;18.770;2024-01-30T11:01:17;74617.25;;;-149.71;28.02
53916;BME280;39827;49.652;18.770;2024-01-30T11:03:42;74669.47;;;-149.71;28.03
53916;BME280;39827;49.652;18.770;2024-01-30T11:06:11;74605.19;;;-149.71;27.73
53916;BME280;39827;49.652;18.770;2024-01-30T11:08:39;74677.53;;;-149.71;27.92
53916;BME280;39827;49.652;18.770;2024-01-30T11:11:09;74701.63;;;-149.71;28.28
53916;BME280;39827;49.652;18.770;2024-01-30T11:13:34;74705.66;;;-149.71;28.28
53916;BME280;39827;49.652;18.770;2024-01-30T11:16:04;74741.81;;;-149.71;28.32
53916;BME280;39827;49.652;18.770;2024-01-30T11:18:30;74876.44;;;-149.71;29.78
53916;BME280;39827;49.652;18.770;2024-01-30T11:20:57;74611.22;;;-149.71;27.90
53916;BME280;39827;49.652;18.770;2024-01-30T11:23:23;74743.84;;;-149.71;28.57
53916;BME280;39827;49.652;18.770;2024-01-30T11:25:49;74617.25;;;-149.71;27.73
53916;BME280;39827;49.652;18.770;2024-01-30T11:28:17;74633.31;;;-149.71;27.83
53916;BME280;39827;49.652;18.770;2024-01-30T11:30:43;74641.34;;;-149.71;27.58
53916;BME280;39827;49.652;18.770;2024-01-30T11:35:43;74757.91;;;-149.71;29.37
53916;BME280;39827;49.652;18.770;2024-01-30T11:38:16;74735.78;;;-149.71;28.60
53916;BME280;39827;49.652;18.770;2024-01-30T11:40:41;74763.94;;;-149.71;28.76
53916;BME280;39827;49.652;18.770;2024-01-30T11:43:08;74804.13;;;-149.71;28.83
53916;BME280;39827;49.652;18.770;2024-01-30T11:45:35;74745.84;;;-149.71;28.81
53916;BME280;39827;49.652;18.770;2024-01-30T11:48:02;74769.94;;;-149.71;28.63
53916;BME280;39827;49.652;18.770;2024-01-30T11:50:33;74786.03;;;-149.71;28.44
53916;BME280;39827;49.652;18.770;2024-01-30T11:53:02;74637.34;;;-149.71;27.78
53916;BME280;39827;49.652;18.770;2024-01-30T11:55:29;74705.66;;;-149.71;28.02
53916;BME280;39827;49.652;18.770;2024-01-30T11:57:56;74755.88;;;-149.71;27.62
53916;BME280;39827;49.652;18.770;2024-01-30T12:00:22;74729.75;;;-149.71;28.43
53916;BME280;39827;49.652;18.770;2024-01-30T12:02:51;74850.34;;;-149.71;29.00
53916;BME280;39827;49.652;18.770;2024-01-30T12:05:21;74633.31;;;-149.71;27.44
53916;BME280;39827;49.652;18.770;2024-01-30T12:07:46;74721.72;;;-149.71;27.92
53916;BME280;39827;49.652;18.770;2024-01-30T12:10:15;74713.69;;;-149.71;27.97
53916;BME280;39827;49.652;18.770;2024-01-30T12:12:42;74790.03;;;-149.71;27.97
53916;BME280;39827;49.652;18.770;2024-01-30T12:15:08;74711.69;;;-149.71;27.83
53916;BME280;39827;49.652;18.770;2024-01-30T12:17:35;74769.94;;;-149.71;28.03
53916;BME280;39827;49.652;18.770;2024-01-30T12:22:30;74695.59;;;-149.71;27.80
53916;BME280;39827;49.652;18.770;2024-01-30T12:24:55;74790.03;;;-149.71;28.40
53916;BME280;39827;49.652;18.770;2024-01-30T12:27:21;74866.41;;;-149.71;29.21
53916;BME280;39827;49.652;18.770;2024-01-30T12:29:46;74731.78;;;-149.71;28.11
53916;BME280;39827;49.652;18.770;2024-01-30T12:32:15;74912.63;;;-149.71;29.19